createdAt,value
2023-05-03T12:41:01.111Z,2.35
2023-05-03T12:43:28.480Z,2.63
2023-05-03T12:48:33.041Z,2.03
2023-05-03T12:51:17.535Z,1.92
2023-05-03T12:53:54.909Z,32.63
2023-05-03T12:56:24.716Z,5.20
2023-05-03T12:59:20.571Z,6.18
2023-05-03T13:06:43.832Z,2.67
2023-05-03T13:09:19.313Z,1.60
2023-05-03T13:11:50.332Z,13.98
2023-05-03T13:14:17.737Z,2.45
2023-05-03T13:16:49.373Z,2.00
2023-05-03T13:19:16.826Z,1.92
2023-05-03T13:21:44.061Z,2.45
2023-05-03T13:24:11.296Z,2.40
2023-05-03T13:26:39.112Z,1.45
2023-05-03T13:29:06.291Z,1.90
2023-05-03T13:31:33.743Z,2.17
2023-05-03T13:34:00.979Z,1.65
2023-05-03T13:36:29.646Z,1.55
2023-05-03T13:38:58.085Z,1.60
2023-05-03T13:41:25.388Z,1.90
2023-05-03T13:43:53.288Z,13.55
2023-05-03T13:46:20.722Z,11.88
2023-05-03T13:48:48.589Z,10.82
2023-05-03T13:51:15.753Z,3.88
2023-05-03T13:53:44.520Z,4.82
2023-05-03T13:56:11.883Z,2.10
2023-05-03T13:58:39.932Z,17.60
2023-05-03T14:01:07.412Z,15.90
2023-05-03T14:03:35.389Z,56.45
2023-05-03T14:06:03.211Z,23.02
2023-05-03T14:08:30.454Z,3.58
2023-05-03T14:10:57.745Z,4.40
2023-05-03T14:13:25.085Z,3.33
2023-05-03T14:15:52.430Z,2.45
2023-05-03T14:18:19.737Z,1.92
2023-05-03T14:20:50.440Z,2.00
2023-05-03T14:23:17.771Z,2.40
2023-05-03T14:25:44.983Z,1.75
2023-05-03T14:28:12.151Z,1.80
2023-05-03T14:30:39.619Z,2.20
2023-05-03T14:33:07.688Z,2.80
2023-05-03T14:35:35.235Z,1.80
2023-05-03T14:38:02.441Z,1.65
2023-05-03T14:40:29.803Z,1.80
2023-05-03T14:42:56.986Z,1.85
2023-05-03T14:45:27.626Z,1.75
2023-05-03T14:47:54.993Z,2.22
2023-05-03T14:50:22.282Z,1.80
2023-05-03T14:52:49.434Z,1.90
2023-05-03T14:55:16.605Z,1.85
2023-05-03T14:57:43.756Z,1.63
2023-05-03T15:00:14.448Z,2.03
2023-05-03T15:02:42.433Z,2.03
2023-05-03T15:05:10.825Z,1.70
2023-05-03T15:07:38.113Z,1.63
2023-05-03T15:10:06.472Z,1.80
2023-05-03T15:12:34.168Z,1.40
2023-05-03T15:15:01.633Z,2.22
2023-05-03T15:17:30.811Z,1.90
2023-05-03T15:19:58.141Z,1.83
2023-05-03T15:22:25.424Z,1.48
2023-05-03T15:24:52.702Z,1.80
2023-05-03T15:27:19.852Z,1.75
2023-05-03T15:29:47.099Z,1.48
2023-05-03T15:32:14.594Z,1.67
2023-05-03T15:34:41.851Z,1.80
2023-05-03T15:37:12.174Z,1.58
2023-05-03T15:39:40.066Z,2.00
2023-05-03T15:42:07.485Z,1.98
2023-05-03T15:44:34.714Z,1.90
2023-05-03T15:47:02.662Z,1.88
2023-05-03T15:49:30.046Z,2.00
2023-05-03T15:51:57.278Z,1.83
2023-05-03T15:54:24.691Z,1.70
2023-05-03T15:56:53.790Z,1.58
2023-05-03T15:59:21.423Z,1.70
2023-05-03T16:01:49.415Z,1.67
2023-05-03T16:04:16.794Z,1.67
2023-05-03T16:06:44.174Z,1.40
2023-05-03T16:09:13.161Z,1.60
2023-05-03T16:11:40.334Z,4.90
2023-05-03T16:14:09.616Z,3.42
2023-05-03T16:16:38.766Z,1.70
2023-05-03T16:19:09.057Z,1.50
2023-05-03T16:21:36.209Z,1.45
2023-05-03T16:24:04.941Z,2.13
2023-05-03T16:26:32.128Z,1.73
2023-05-03T16:28:59.468Z,1.80
2023-05-03T16:31:26.743Z,1.67
2023-05-03T16:33:53.951Z,1.70
2023-05-03T16:36:21.167Z,2.05
2023-05-03T16:38:48.467Z,1.50
2023-05-03T16:41:16.857Z,1.95
2023-05-03T16:43:44.368Z,1.60
2023-05-03T16:46:11.659Z,2.00
2023-05-03T16:48:38.933Z,1.65
2023-05-03T16:51:06.267Z,1.60
2023-05-03T16:53:33.512Z,1.52
2023-05-03T16:56:01.474Z,1.92
2023-05-03T16:58:28.685Z,1.60
2023-05-03T17:00:56.391Z,1.70
2023-05-03T17:03:23.974Z,1.70
2023-05-03T17:05:51.575Z,1.80
2023-05-03T17:08:19.260Z,1.73
2023-05-03T17:10:46.538Z,1.90
2023-05-03T17:13:13.975Z,1.95
2023-05-03T17:15:41.281Z,2.10
2023-05-03T17:18:10.619Z,1.70
2023-05-03T17:20:39.187Z,1.65
2023-05-03T17:23:06.539Z,1.60
2023-05-03T17:25:34.178Z,1.45
2023-05-03T17:28:01.432Z,1.83
2023-05-03T17:30:29.211Z,1.70
2023-05-03T17:32:57.142Z,1.50
2023-05-03T17:35:24.365Z,1.70
2023-05-03T17:37:51.521Z,1.73
2023-05-03T17:40:19.188Z,1.60
2023-05-03T17:42:47.102Z,1.70
2023-05-03T17:45:14.750Z,1.77
2023-05-03T17:47:41.968Z,1.70
2023-05-03T17:50:10.052Z,1.88
2023-05-03T17:52:37.345Z,1.50
2023-05-03T17:55:04.569Z,1.90
2023-05-03T17:57:31.796Z,2.22
2023-05-03T17:59:58.956Z,2.47
2023-05-03T18:02:26.142Z,3.70
2023-05-03T18:04:54.426Z,8.00
2023-05-03T18:07:21.766Z,23.10
2023-05-03T18:09:49.271Z,27.33
2023-05-03T18:12:16.500Z,22.67
2023-05-03T18:14:44.115Z,20.95
2023-05-03T18:17:11.253Z,17.95
2023-05-03T18:19:38.561Z,18.88
2023-05-03T18:22:06.852Z,24.42
2023-05-03T18:24:34.038Z,28.27
2023-05-03T18:27:01.738Z,31.45
2023-05-03T18:29:29.047Z,29.30
2023-05-03T18:31:58.564Z,33.67
2023-05-03T18:34:27.214Z,33.70
2023-05-03T18:36:54.424Z,35.63
2023-05-03T18:39:23.022Z,36.53
2023-05-03T18:41:50.776Z,31.08
2023-05-03T18:44:17.987Z,36.95
2023-05-03T18:46:45.201Z,44.20
2023-05-03T18:49:12.724Z,62.33
2023-05-03T18:51:40.425Z,76.00
2023-05-03T18:54:07.915Z,67.18
2023-05-03T18:56:35.350Z,71.53
2023-05-03T18:59:02.912Z,56.72
2023-05-03T19:01:30.245Z,53.55
2023-05-03T19:03:57.767Z,47.70
2023-05-03T19:06:25.074Z,54.15
2023-05-03T19:08:53.667Z,64.80
2023-05-03T19:11:20.868Z,74.30
2023-05-03T19:13:48.261Z,98.00
2023-05-03T19:16:15.759Z,127.63
2023-05-03T19:18:44.441Z,132.70
2023-05-03T19:21:17.608Z,145.10
2023-05-03T19:23:45.008Z,139.80
2023-05-03T19:26:12.436Z,133.87
2023-05-03T19:28:40.063Z,123.53
2023-05-03T19:31:07.349Z,101.97
2023-05-03T19:33:34.659Z,86.23
2023-05-03T19:36:06.723Z,75.47
2023-05-03T19:38:36.616Z,68.43
2023-05-03T19:41:12.485Z,65.60
2023-05-03T19:43:40.370Z,58.40
2023-05-03T19:46:08.097Z,52.13
2023-05-03T19:48:35.654Z,44.97
2023-05-03T19:51:05.454Z,39.93
2023-05-03T19:53:32.778Z,58.90
2023-05-03T19:56:00.940Z,62.20
2023-05-03T19:58:28.534Z,54.70
2023-05-03T20:00:55.819Z,55.43
2023-05-03T20:03:23.963Z,57.40
2023-05-03T20:05:51.469Z,61.43
2023-05-03T20:08:18.620Z,67.70
2023-05-03T20:10:46.658Z,67.73
2023-05-03T20:13:14.184Z,74.00
2023-05-03T20:15:41.536Z,68.97
2023-05-03T20:18:09.158Z,60.43
2023-05-03T20:20:36.623Z,66.10
2023-05-03T20:23:03.840Z,65.73
2023-05-03T20:25:31.067Z,65.57
2023-05-03T20:27:58.251Z,66.43
2023-05-03T20:30:25.527Z,65.90
2023-05-03T20:32:53.349Z,57.77
2023-05-03T20:35:20.776Z,54.00
2023-05-03T20:37:47.932Z,51.37
2023-05-03T20:40:15.703Z,44.77
2023-05-03T20:42:42.966Z,41.43
2023-05-03T20:45:10.335Z,42.30
2023-05-03T20:47:37.690Z,42.47
2023-05-03T20:50:05.993Z,42.93
2023-05-03T20:52:33.660Z,40.90
2023-05-03T20:55:01.014Z,43.77
2023-05-03T20:57:28.907Z,43.40
2023-05-03T20:59:56.168Z,45.13
2023-05-03T21:02:23.444Z,44.90
2023-05-03T21:04:50.790Z,49.23
2023-05-03T21:07:17.989Z,50.77
2023-05-03T21:09:45.766Z,46.93
2023-05-03T21:12:13.295Z,44.67
2023-05-03T21:14:40.429Z,41.83
2023-05-03T21:17:08.844Z,41.03
2023-05-03T21:19:36.214Z,39.97
2023-05-03T21:22:03.434Z,41.30
2023-05-03T21:24:31.135Z,50.93
2023-05-03T21:26:58.857Z,55.80
2023-05-03T21:29:26.085Z,74.03
2023-05-03T21:31:53.290Z,69.97
2023-05-03T21:34:20.468Z,59.67
2023-05-03T21:36:47.726Z,51.43
2023-05-03T21:39:15.217Z,49.93
2023-05-03T21:41:43.634Z,45.50
2023-05-03T21:44:11.965Z,62.97
2023-05-03T21:46:42.075Z,61.43
2023-05-03T21:49:09.622Z,49.07
2023-05-03T21:51:36.974Z,43.00
2023-05-03T21:54:04.819Z,40.57
2023-05-03T21:56:32.153Z,40.07
2023-05-03T21:58:59.751Z,42.57
2023-05-03T22:01:26.958Z,42.97
2023-05-03T22:03:54.343Z,44.93
2023-05-03T22:06:21.856Z,57.10
2023-05-03T22:08:49.407Z,73.27
2023-05-03T22:11:16.601Z,77.87
2023-05-03T22:13:58.869Z,75.90
2023-05-03T22:16:31.360Z,67.40
2023-05-03T22:18:58.790Z,61.03
2023-05-03T22:21:26.320Z,55.03
2023-05-03T22:23:53.579Z,49.63
2023-05-03T22:26:20.715Z,47.20
2023-05-03T22:28:47.948Z,46.07
2023-05-03T22:31:15.316Z,44.43
2023-05-03T22:33:44.995Z,40.63
2023-05-03T22:36:12.990Z,41.87
2023-05-03T22:38:42.879Z,39.27
2023-05-03T22:41:10.485Z,38.17
2023-05-03T22:43:37.999Z,37.83
2023-05-03T22:46:05.240Z,37.77
2023-05-03T22:48:34.072Z,37.90
2023-05-03T22:51:01.442Z,37.60
2023-05-03T22:53:28.710Z,37.80
2023-05-03T22:55:59.532Z,37.47
2023-05-03T22:58:26.974Z,39.60
2023-05-03T23:00:54.663Z,38.07
2023-05-03T23:03:22.422Z,37.93
2023-05-03T23:05:50.421Z,38.50
2023-05-03T23:08:17.770Z,39.93
2023-05-03T23:10:44.990Z,37.70
2023-05-03T23:13:12.301Z,36.37
2023-05-03T23:15:40.227Z,36.40
2023-05-03T23:18:07.515Z,35.00
2023-05-03T23:20:34.925Z,35.67
2023-05-03T23:23:02.471Z,37.17
2023-05-03T23:25:29.721Z,37.23
2023-05-03T23:27:57.091Z,40.43
2023-05-03T23:30:24.743Z,39.23
2023-05-03T23:32:52.567Z,37.90
2023-05-03T23:35:21.794Z,38.93
2023-05-03T23:37:49.104Z,40.43
2023-05-03T23:40:16.607Z,41.37
2023-05-03T23:42:43.851Z,40.37
2023-05-03T23:45:11.253Z,39.97
2023-05-03T23:47:38.555Z,37.37
2023-05-03T23:50:06.400Z,34.43
2023-05-03T23:52:33.948Z,33.60
2023-05-03T23:55:01.257Z,31.97
2023-05-03T23:57:28.442Z,30.07
2023-05-03T23:59:55.738Z,30.23
